sensor_id;sensor_type;location;lat;lon;timestamp;P1;durP1;ratioP1;P2;durP2;ratioP2
51921;SDS011;37948;53.260;6.394;2022-09-12T00:01:05;8.65;;;7.40;;
51921;SDS011;37948;53.260;6.394;2022-09-12T00:03:36;7.55;;;6.78;;
51921;SDS011;37948;53.260;6.394;2022-09-12T00:08:37;8.70;;;7.35;;
51921;SDS011;37948;53.260;6.394;2022-09-12T00:11:04;10.90;;;7.68;;
51921;SDS011;37948;53.260;6.394;2022-09-12T00:13:31;9.00;;;8.13;;
51921;SDS011;37948;53.260;6.394;2022-09-12T00:15:57;11.23;;;8.70;;
51921;SDS011;37948;53.260;6.394;2022-09-12T00:18:22;8.25;;;7.57;;
51921;SDS011;37948;53.260;6.394;2022-09-12T00:20:48;11.55;;;7.70;;
51921;SDS011;37948;53.260;6.394;2022-09-12T00:23:14;9.23;;;8.30;;
51921;SDS011;37948;53.260;6.394;2022-09-12T00:25:40;8.95;;;8.00;;
51921;SDS011;37948;53.260;6.394;2022-09-12T00:28:07;9.15;;;8.15;;
51921;SDS011;37948;53.260;6.394;2022-09-12T00:30:33;9.75;;;8.52;;
51921;SDS011;37948;53.260;6.394;2022-09-12T00:32:58;9.90;;;8.95;;
51921;SDS011;37948;53.260;6.394;2022-09-12T00:35:24;9.43;;;8.43;;
51921;SDS011;37948;53.260;6.394;2022-09-12T00:37:49;9.25;;;8.35;;
51921;SDS011;37948;53.260;6.394;2022-09-12T00:40:15;9.82;;;8.88;;
51921;SDS011;37948;53.260;6.394;2022-09-12T00:42:41;10.30;;;9.05;;
51921;SDS011;37948;53.260;6.394;2022-09-12T00:45:07;9.98;;;8.98;;
51921;SDS011;37948;53.260;6.394;2022-09-12T00:47:52;9.60;;;8.65;;
51921;SDS011;37948;53.260;6.394;2022-09-12T00:50:19;10.52;;;9.40;;
51921;SDS011;37948;53.260;6.394;2022-09-12T00:52:51;9.60;;;8.63;;
51921;SDS011;37948;53.260;6.394;2022-09-12T00:57:53;10.40;;;9.32;;
51921;SDS011;37948;53.260;6.394;2022-09-12T01:00:23;10.95;;;9.30;;
51921;SDS011;37948;53.260;6.394;2022-09-12T01:02:52;10.98;;;9.98;;
51921;SDS011;37948;53.260;6.394;2022-09-12T01:05:26;9.95;;;8.95;;
51921;SDS011;37948;53.260;6.394;2022-09-12T01:07:53;11.77;;;9.48;;
51921;SDS011;37948;53.260;6.394;2022-09-12T01:10:21;9.82;;;8.90;;
51921;SDS011;37948;53.260;6.394;2022-09-12T01:12:48;9.90;;;9.00;;
51921;SDS011;37948;53.260;6.394;2022-09-12T01:15:14;10.50;;;9.45;;
51921;SDS011;37948;53.260;6.394;2022-09-12T01:17:47;11.57;;;9.27;;
51921;SDS011;37948;53.260;6.394;2022-09-12T01:26:21;10.15;;;9.15;;
51921;SDS011;37948;53.260;6.394;2022-09-12T01:29:23;10.13;;;8.57;;
51921;SDS011;37948;53.260;6.394;2022-09-12T01:37:37;10.13;;;9.13;;
51921;SDS011;37948;53.260;6.394;2022-09-12T01:40:24;12.57;;;9.73;;
51921;SDS011;37948;53.260;6.394;2022-09-12T01:43:08;9.95;;;9.05;;
51921;SDS011;37948;53.260;6.394;2022-09-12T01:45:57;11.10;;;10.00;;
51921;SDS011;37948;53.260;6.394;2022-09-12T01:48:40;10.32;;;9.43;;
51921;SDS011;37948;53.260;6.394;2022-09-12T01:51:15;13.20;;;10.75;;
51921;SDS011;37948;53.260;6.394;2022-09-12T01:53:47;10.82;;;9.82;;
51921;SDS011;37948;53.260;6.394;2022-09-12T01:56:23;12.80;;;9.90;;
51921;SDS011;37948;53.260;6.394;2022-09-12T01:59:01;11.35;;;10.25;;
51921;SDS011;37948;53.260;6.394;2022-09-12T02:01:38;13.43;;;9.80;;
51921;SDS011;37948;53.260;6.394;2022-09-12T02:04:10;13.60;;;9.77;;
51921;SDS011;37948;53.260;6.394;2022-09-12T02:06:48;10.70;;;9.70;;
51921;SDS011;37948;53.260;6.394;2022-09-12T02:09:26;12.88;;;10.52;;
51921;SDS011;37948;53.260;6.394;2022-09-12T02:11:58;10.88;;;9.73;;
51921;SDS011;37948;53.260;6.394;2022-09-12T02:14:33;13.68;;;10.77;;
51921;SDS011;37948;53.260;6.394;2022-09-12T02:17:06;13.40;;;10.32;;
51921;SDS011;37948;53.260;6.394;2022-09-12T02:19:37;12.88;;;11.02;;
51921;SDS011;37948;53.260;6.394;2022-09-12T02:22:06;14.00;;;11.38;;
51921;SDS011;37948;53.260;6.394;2022-09-12T02:24:37;11.93;;;10.82;;
51921;SDS011;37948;53.260;6.394;2022-09-12T02:27:10;10.98;;;9.98;;
51921;SDS011;37948;53.260;6.394;2022-09-12T02:29:39;14.68;;;10.98;;
51921;SDS011;37948;53.260;6.394;2022-09-12T02:32:27;11.60;;;9.88;;
51921;SDS011;37948;53.260;6.394;2022-09-12T02:37:37;11.10;;;10.10;;
51921;SDS011;37948;53.260;6.394;2022-09-12T02:40:14;11.65;;;10.55;;
51921;SDS011;37948;53.260;6.394;2022-09-12T02:42:40;12.63;;;10.88;;
51921;SDS011;37948;53.260;6.394;2022-09-12T02:45:06;11.52;;;10.48;;
51921;SDS011;37948;53.260;6.394;2022-09-12T02:50:02;11.38;;;10.30;;
51921;SDS011;37948;53.260;6.394;2022-09-12T02:52:29;13.82;;;10.50;;
51921;SDS011;37948;53.260;6.394;2022-09-12T02:54:56;11.98;;;10.40;;
51921;SDS011;37948;53.260;6.394;2022-09-12T02:57:22;13.32;;;10.55;;
51921;SDS011;37948;53.260;6.394;2022-09-12T02:59:49;10.82;;;9.80;;
51921;SDS011;37948;53.260;6.394;2022-09-12T03:02:31;12.27;;;11.18;;
51921;SDS011;37948;53.260;6.394;2022-09-12T03:05:20;11.00;;;9.82;;
51921;SDS011;37948;53.260;6.394;2022-09-12T03:08:00;12.70;;;11.40;;
51921;SDS011;37948;53.260;6.394;2022-09-12T03:10:39;12.07;;;10.48;;
51921;SDS011;37948;53.260;6.394;2022-09-12T03:13:19;13.38;;;11.48;;
51921;SDS011;37948;53.260;6.394;2022-09-12T03:16:15;12.27;;;11.00;;
51921;SDS011;37948;53.260;6.394;2022-09-12T03:21:37;11.63;;;10.52;;
51921;SDS011;37948;53.260;6.394;2022-09-12T03:24:14;12.13;;;10.90;;
51921;SDS011;37948;53.260;6.394;2022-09-12T03:29:20;11.82;;;10.63;;
51921;SDS011;37948;53.260;6.394;2022-09-12T03:31:49;13.07;;;11.68;;
51921;SDS011;37948;53.260;6.394;2022-09-12T03:34:16;11.50;;;10.40;;
51921;SDS011;37948;53.260;6.394;2022-09-12T03:36:43;11.93;;;10.77;;
51921;SDS011;37948;53.260;6.394;2022-09-12T03:39:08;12.90;;;11.00;;
51921;SDS011;37948;53.260;6.394;2022-09-12T03:41:34;11.73;;;10.52;;
51921;SDS011;37948;53.260;6.394;2022-09-12T03:44:00;11.13;;;9.90;;
51921;SDS011;37948;53.260;6.394;2022-09-12T03:46:26;11.13;;;10.13;;
51921;SDS011;37948;53.260;6.394;2022-09-12T03:48:51;12.25;;;10.98;;
51921;SDS011;37948;53.260;6.394;2022-09-12T03:51:17;11.90;;;10.70;;
51921;SDS011;37948;53.260;6.394;2022-09-12T03:53:42;12.93;;;11.63;;
51921;SDS011;37948;53.260;6.394;2022-09-12T03:56:08;12.50;;;10.90;;
51921;SDS011;37948;53.260;6.394;2022-09-12T03:58:35;12.88;;;11.65;;
51921;SDS011;37948;53.260;6.394;2022-09-12T04:03:40;13.82;;;12.35;;
51921;SDS011;37948;53.260;6.394;2022-09-12T04:06:08;16.20;;;11.13;;
51921;SDS011;37948;53.260;6.394;2022-09-12T04:08:35;13.48;;;12.05;;
51921;SDS011;37948;53.260;6.394;2022-09-12T04:11:05;13.55;;;12.13;;
51921;SDS011;37948;53.260;6.394;2022-09-12T04:13:33;12.77;;;11.52;;
51921;SDS011;37948;53.260;6.394;2022-09-12T04:16:00;15.85;;;12.52;;
51921;SDS011;37948;53.260;6.394;2022-09-12T04:18:26;15.38;;;12.60;;
51921;SDS011;37948;53.260;6.394;2022-09-12T04:20:52;14.18;;;12.73;;
51921;SDS011;37948;53.260;6.394;2022-09-12T04:23:18;15.20;;;12.55;;
51921;SDS011;37948;53.260;6.394;2022-09-12T04:25:43;13.80;;;12.40;;
51921;SDS011;37948;53.260;6.394;2022-09-12T04:28:16;15.20;;;12.95;;
51921;SDS011;37948;53.260;6.394;2022-09-12T04:30:42;14.45;;;12.95;;
51921;SDS011;37948;53.260;6.394;2022-09-12T04:33:07;15.63;;;13.18;;
51921;SDS011;37948;53.260;6.394;2022-09-12T04:35:34;16.05;;;12.38;;
51921;SDS011;37948;53.260;6.394;2022-09-12T04:37:59;13.90;;;12.20;;
51921;SDS011;37948;53.260;6.394;2022-09-12T04:40:27;19.83;;;14.13;;
51921;SDS011;37948;53.260;6.394;2022-09-12T04:42:53;14.50;;;12.48;;
51921;SDS011;37948;53.260;6.394;2022-09-12T04:45:20;16.13;;;14.43;;
51921;SDS011;37948;53.260;6.394;2022-09-12T04:47:46;22.15;;;14.07;;
51921;SDS011;37948;53.260;6.394;2022-09-12T04:50:11;16.90;;;13.48;;
51921;SDS011;37948;53.260;6.394;2022-09-12T04:52:38;16.50;;;14.63;;
51921;SDS011;37948;53.260;6.394;2022-09-12T04:55:05;19.83;;;14.85;;
51921;SDS011;37948;53.260;6.394;2022-09-12T04:57:31;16.33;;;13.98;;
51921;SDS011;37948;53.260;6.394;2022-09-12T04:59:57;18.30;;;15.40;;
51921;SDS011;37948;53.260;6.394;2022-09-12T05:02:23;21.17;;;14.57;;
51921;SDS011;37948;53.260;6.394;2022-09-12T05:04:49;16.40;;;14.35;;
51921;SDS011;37948;53.260;6.394;2022-09-12T05:07:14;16.58;;;14.38;;
51921;SDS011;37948;53.260;6.394;2022-09-12T05:09:40;20.30;;;15.55;;
51921;SDS011;37948;53.260;6.394;2022-09-12T05:12:05;20.60;;;15.63;;
51921;SDS011;37948;53.260;6.394;2022-09-12T05:14:32;22.98;;;15.48;;
51921;SDS011;37948;53.260;6.394;2022-09-12T05:16:58;22.52;;;16.00;;
51921;SDS011;37948;53.260;6.394;2022-09-12T05:19:25;18.45;;;15.50;;
51921;SDS011;37948;53.260;6.394;2022-09-12T05:21:51;21.50;;;17.25;;
51921;SDS011;37948;53.260;6.394;2022-09-12T05:24:17;31.45;;;18.00;;
51921;SDS011;37948;53.260;6.394;2022-09-12T05:26:43;22.17;;;17.58;;
51921;SDS011;37948;53.260;6.394;2022-09-12T05:29:08;23.98;;;17.55;;
51921;SDS011;37948;53.260;6.394;2022-09-12T05:31:34;21.60;;;17.42;;
51921;SDS011;37948;53.260;6.394;2022-09-12T05:34:00;21.45;;;17.40;;
51921;SDS011;37948;53.260;6.394;2022-09-12T05:36:27;21.52;;;16.73;;
51921;SDS011;37948;53.260;6.394;2022-09-12T05:38:53;24.02;;;17.20;;
51921;SDS011;37948;53.260;6.394;2022-09-12T05:41:23;25.00;;;17.45;;
51921;SDS011;37948;53.260;6.394;2022-09-12T05:43:51;19.42;;;17.02;;
51921;SDS011;37948;53.260;6.394;2022-09-12T05:46:18;23.15;;;17.23;;
51921;SDS011;37948;53.260;6.394;2022-09-12T05:48:47;20.75;;;17.42;;
51921;SDS011;37948;53.260;6.394;2022-09-12T05:51:14;21.15;;;17.42;;
51921;SDS011;37948;53.260;6.394;2022-09-12T05:53:43;21.85;;;17.25;;
51921;SDS011;37948;53.260;6.394;2022-09-12T05:56:13;20.88;;;17.38;;
51921;SDS011;37948;53.260;6.394;2022-09-12T05:58:42;21.60;;;17.17;;
51921;SDS011;37948;53.260;6.394;2022-09-12T06:01:10;19.73;;;16.38;;
51921;SDS011;37948;53.260;6.394;2022-09-12T06:03:39;21.30;;;16.67;;
51921;SDS011;37948;53.260;6.394;2022-09-12T06:06:06;21.10;;;16.77;;
51921;SDS011;37948;53.260;6.394;2022-09-12T06:08:33;21.05;;;17.80;;
51921;SDS011;37948;53.260;6.394;2022-09-12T06:11:01;24.40;;;18.80;;
51921;SDS011;37948;53.260;6.394;2022-09-12T06:13:27;22.27;;;17.48;;
51921;SDS011;37948;53.260;6.394;2022-09-12T06:16:00;24.40;;;18.05;;
51921;SDS011;37948;53.260;6.394;2022-09-12T06:18:33;22.70;;;17.38;;
51921;SDS011;37948;53.260;6.394;2022-09-12T06:21:07;21.52;;;17.35;;
51921;SDS011;37948;53.260;6.394;2022-09-12T06:23:33;20.95;;;17.42;;
51921;SDS011;37948;53.260;6.394;2022-09-12T06:26:00;21.13;;;17.35;;
51921;SDS011;37948;53.260;6.394;2022-09-12T06:28:26;21.90;;;17.38;;
51921;SDS011;37948;53.260;6.394;2022-09-12T06:30:52;22.17;;;17.65;;
51921;SDS011;37948;53.260;6.394;2022-09-12T06:33:18;23.52;;;17.70;;
51921;SDS011;37948;53.260;6.394;2022-09-12T06:35:44;23.13;;;17.20;;
51921;SDS011;37948;53.260;6.394;2022-09-12T06:38:10;27.05;;;18.08;;
51921;SDS011;37948;53.260;6.394;2022-09-12T06:40:42;24.90;;;18.85;;
51921;SDS011;37948;53.260;6.394;2022-09-12T06:43:09;27.98;;;18.95;;
51921;SDS011;37948;53.260;6.394;2022-09-12T06:45:37;28.45;;;18.92;;
51921;SDS011;37948;53.260;6.394;2022-09-12T06:48:03;27.10;;;19.77;;
51921;SDS011;37948;53.260;6.394;2022-09-12T06:50:29;29.65;;;20.08;;
51921;SDS011;37948;53.260;6.394;2022-09-12T06:52:55;30.30;;;21.63;;
51921;SDS011;37948;53.260;6.394;2022-09-12T06:55:20;27.30;;;21.08;;
51921;SDS011;37948;53.260;6.394;2022-09-12T06:57:48;29.67;;;20.38;;
51921;SDS011;37948;53.260;6.394;2022-09-12T07:00:13;29.80;;;21.73;;
51921;SDS011;37948;53.260;6.394;2022-09-12T07:02:39;33.25;;;21.25;;
51921;SDS011;37948;53.260;6.394;2022-09-12T07:05:05;32.65;;;21.25;;
51921;SDS011;37948;53.260;6.394;2022-09-12T07:07:30;32.42;;;22.25;;
51921;SDS011;37948;53.260;6.394;2022-09-12T07:09:58;31.75;;;22.33;;
51921;SDS011;37948;53.260;6.394;2022-09-12T07:12:24;35.08;;;24.33;;
51921;SDS011;37948;53.260;6.394;2022-09-12T07:14:53;35.47;;;24.83;;
51921;SDS011;37948;53.260;6.394;2022-09-12T07:17:18;33.55;;;23.52;;
51921;SDS011;37948;53.260;6.394;2022-09-12T07:19:44;37.55;;;23.38;;
51921;SDS011;37948;53.260;6.394;2022-09-12T07:22:09;39.45;;;24.40;;
51921;SDS011;37948;53.260;6.394;2022-09-12T07:24:35;36.47;;;24.77;;
51921;SDS011;37948;53.260;6.394;2022-09-12T07:27:01;36.50;;;24.65;;
51921;SDS011;37948;53.260;6.394;2022-09-12T07:29:26;39.92;;;25.00;;
51921;SDS011;37948;53.260;6.394;2022-09-12T07:31:52;39.95;;;26.20;;
51921;SDS011;37948;53.260;6.394;2022-09-12T07:34:18;41.08;;;27.33;;
51921;SDS011;37948;53.260;6.394;2022-09-12T07:36:44;42.15;;;27.55;;
51921;SDS011;37948;53.260;6.394;2022-09-12T07:39:09;37.15;;;25.98;;
51921;SDS011;37948;53.260;6.394;2022-09-12T07:41:35;44.78;;;27.35;;
51921;SDS011;37948;53.260;6.394;2022-09-12T07:44:01;43.90;;;27.92;;
51921;SDS011;37948;53.260;6.394;2022-09-12T07:46:28;48.45;;;28.38;;
51921;SDS011;37948;53.260;6.394;2022-09-12T07:48:56;45.33;;;28.92;;
51921;SDS011;37948;53.260;6.394;2022-09-12T07:51:24;45.55;;;28.85;;
51921;SDS011;37948;53.260;6.394;2022-09-12T07:53:50;45.60;;;27.85;;
51921;SDS011;37948;53.260;6.394;2022-09-12T07:56:16;43.75;;;27.30;;
51921;SDS011;37948;53.260;6.394;2022-09-12T07:58:44;41.05;;;26.58;;
51921;SDS011;37948;53.260;6.394;2022-09-12T08:01:13;48.70;;;28.95;;
51921;SDS011;37948;53.260;6.394;2022-09-12T08:03:44;45.47;;;27.25;;
51921;SDS011;37948;53.260;6.394;2022-09-12T08:06:18;44.50;;;28.08;;
51921;SDS011;37948;53.260;6.394;2022-09-12T08:08:45;45.15;;;26.77;;
51921;SDS011;37948;53.260;6.394;2022-09-12T08:11:12;49.05;;;29.17;;
51921;SDS011;37948;53.260;6.394;2022-09-12T08:13:40;46.72;;;30.27;;
51921;SDS011;37948;53.260;6.394;2022-09-12T08:16:09;47.80;;;29.63;;
51921;SDS011;37948;53.260;6.394;2022-09-12T08:18:39;48.05;;;30.08;;
51921;SDS011;37948;53.260;6.394;2022-09-12T08:21:08;43.67;;;28.05;;
51921;SDS011;37948;53.260;6.394;2022-09-12T08:23:36;44.35;;;27.77;;
51921;SDS011;37948;53.260;6.394;2022-09-12T08:26:03;42.05;;;26.63;;
51921;SDS011;37948;53.260;6.394;2022-09-12T08:28:30;45.35;;;27.90;;
51921;SDS011;37948;53.260;6.394;2022-09-12T08:31:00;47.08;;;28.75;;
51921;SDS011;37948;53.260;6.394;2022-09-12T08:33:29;43.35;;;26.92;;
51921;SDS011;37948;53.260;6.394;2022-09-12T08:36:11;40.03;;;25.85;;
51921;SDS011;37948;53.260;6.394;2022-09-12T08:38:43;43.97;;;27.27;;
51921;SDS011;37948;53.260;6.394;2022-09-12T08:41:29;45.20;;;26.90;;
51921;SDS011;37948;53.260;6.394;2022-09-12T08:49:44;45.70;;;27.67;;
51921;SDS011;37948;53.260;6.394;2022-09-12T08:52:34;47.15;;;28.30;;
51921;SDS011;37948;53.260;6.394;2022-09-12T08:55:05;43.88;;;27.65;;
51921;SDS011;37948;53.260;6.394;2022-09-12T08:57:58;45.90;;;26.73;;
51921;SDS011;37948;53.260;6.394;2022-09-12T09:00:37;47.40;;;28.45;;
51921;SDS011;37948;53.260;6.394;2022-09-12T09:11:59;51.38;;;27.60;;
51921;SDS011;37948;53.260;6.394;2022-09-12T09:17:31;47.13;;;27.42;;
51921;SDS011;37948;53.260;6.394;2022-09-12T09:20:15;47.42;;;27.10;;
51921;SDS011;37948;53.260;6.394;2022-09-12T09:22:56;46.50;;;26.98;;
51921;SDS011;37948;53.260;6.394;2022-09-12T09:25:40;44.50;;;28.15;;
51921;SDS011;37948;53.260;6.394;2022-09-12T09:28:15;48.08;;;27.55;;
51921;SDS011;37948;53.260;6.394;2022-09-12T09:30:46;44.17;;;27.63;;
51921;SDS011;37948;53.260;6.394;2022-09-12T09:33:32;39.13;;;27.17;;
51921;SDS011;37948;53.260;6.394;2022-09-12T09:36:02;40.95;;;25.15;;
51921;SDS011;37948;53.260;6.394;2022-09-12T09:38:48;45.95;;;27.23;;
51921;SDS011;37948;53.260;6.394;2022-09-12T09:43:45;37.67;;;24.93;;
51921;SDS011;37948;53.260;6.394;2022-09-12T09:46:11;42.35;;;27.67;;
51921;SDS011;37948;53.260;6.394;2022-09-12T09:48:41;41.85;;;26.25;;
51921;SDS011;37948;53.260;6.394;2022-09-12T09:51:10;45.83;;;27.83;;
51921;SDS011;37948;53.260;6.394;2022-09-12T09:53:41;46.40;;;29.25;;
51921;SDS011;37948;53.260;6.394;2022-09-12T09:56:37;38.97;;;26.95;;
51921;SDS011;37948;53.260;6.394;2022-09-12T09:59:08;40.08;;;24.45;;
51921;SDS011;37948;53.260;6.394;2022-09-12T10:01:36;42.10;;;27.27;;
51921;SDS011;37948;53.260;6.394;2022-09-12T10:04:08;39.80;;;25.90;;
51921;SDS011;37948;53.260;6.394;2022-09-12T10:06:42;41.35;;;25.48;;
51921;SDS011;37948;53.260;6.394;2022-09-12T10:11:37;41.20;;;25.20;;
51921;SDS011;37948;53.260;6.394;2022-09-12T10:14:03;39.15;;;24.92;;
51921;SDS011;37948;53.260;6.394;2022-09-12T10:16:33;36.13;;;21.85;;
51921;SDS011;37948;53.260;6.394;2022-09-12T10:19:18;35.10;;;21.13;;
51921;SDS011;37948;53.260;6.394;2022-09-12T10:21:52;31.25;;;20.02;;
51921;SDS011;37948;53.260;6.394;2022-09-12T10:24:38;36.37;;;18.30;;
51921;SDS011;37948;53.260;6.394;2022-09-12T10:29:43;27.27;;;16.50;;
51921;SDS011;37948;53.260;6.394;2022-09-12T10:32:20;22.73;;;13.65;;
51921;SDS011;37948;53.260;6.394;2022-09-12T10:34:51;35.03;;;16.85;;
51921;SDS011;37948;53.260;6.394;2022-09-12T10:37:23;27.00;;;15.20;;
51921;SDS011;37948;53.260;6.394;2022-09-12T10:39:51;24.02;;;14.35;;
51921;SDS011;37948;53.260;6.394;2022-09-12T10:45:19;22.95;;;15.07;;
51921;SDS011;37948;53.260;6.394;2022-09-12T10:47:47;20.25;;;12.98;;
51921;SDS011;37948;53.260;6.394;2022-09-12T10:50:21;18.65;;;13.32;;
51921;SDS011;37948;53.260;6.394;2022-09-12T10:52:51;25.25;;;14.45;;
51921;SDS011;37948;53.260;6.394;2022-09-12T10:55:19;19.88;;;12.65;;
51921;SDS011;37948;53.260;6.394;2022-09-12T11:00:50;28.70;;;13.93;;
51921;SDS011;37948;53.260;6.394;2022-09-12T11:03:37;25.00;;;14.88;;
51921;SDS011;37948;53.260;6.394;2022-09-12T11:06:34;23.35;;;14.10;;
51921;SDS011;37948;53.260;6.394;2022-09-12T11:09:22;25.58;;;14.68;;
51921;SDS011;37948;53.260;6.394;2022-09-12T11:15:02;19.70;;;12.27;;
51921;SDS011;37948;53.260;6.394;2022-09-12T11:18:04;16.10;;;10.45;;
51921;SDS011;37948;53.260;6.394;2022-09-12T11:20:58;18.13;;;10.50;;
51921;SDS011;37948;53.260;6.394;2022-09-12T11:35:15;17.47;;;7.47;;
51921;SDS011;37948;53.260;6.394;2022-09-12T11:37:58;11.15;;;8.15;;
51921;SDS011;37948;53.260;6.394;2022-09-12T11:49:10;10.73;;;6.75;;
51921;SDS011;37948;53.260;6.394;2022-09-12T11:51:57;9.18;;;6.45;;
51921;SDS011;37948;53.260;6.394;2022-09-12T12:00:01;9.95;;;7.30;;
51921;SDS011;37948;53.260;6.394;2022-09-12T12:02:34;10.10;;;6.07;;
51921;SDS011;37948;53.260;6.394;2022-09-12T12:07:51;15.02;;;8.07;;
51921;SDS011;37948;53.260;6.394;2022-09-12T12:13:05;10.00;;;6.68;;
51921;SDS011;37948;53.260;6.394;2022-09-12T12:15:46;12.27;;;6.63;;
51921;SDS011;37948;53.260;6.394;2022-09-12T12:18:19;10.55;;;6.03;;
51921;SDS011;37948;53.260;6.394;2022-09-12T12:20:49;12.10;;;6.57;;
51921;SDS011;37948;53.260;6.394;2022-09-12T12:25:54;8.05;;;6.65;;
51921;SDS011;37948;53.260;6.394;2022-09-12T12:31:05;12.75;;;7.32;;
51921;SDS011;37948;53.260;6.394;2022-09-12T12:36:01;10.25;;;7.55;;
51921;SDS011;37948;53.260;6.394;2022-09-12T12:38:32;10.80;;;7.78;;
51921;SDS011;37948;53.260;6.394;2022-09-12T12:43:43;17.55;;;8.30;;
51921;SDS011;37948;53.260;6.394;2022-09-12T12:46:10;9.27;;;6.47;;
51921;SDS011;37948;53.260;6.394;2022-09-12T12:51:25;5.95;;;5.35;;
51921;SDS011;37948;53.260;6.394;2022-09-12T12:53:55;8.95;;;6.63;;
51921;SDS011;37948;53.260;6.394;2022-09-12T12:56:34;9.57;;;6.72;;
51921;SDS011;37948;53.260;6.394;2022-09-12T13:01:37;9.05;;;6.05;;
51921;SDS011;37948;53.260;6.394;2022-09-12T13:04:14;14.93;;;6.68;;
51921;SDS011;37948;53.260;6.394;2022-09-12T13:06:43;7.88;;;6.60;;
51921;SDS011;37948;53.260;6.394;2022-09-12T13:17:14;7.47;;;4.93;;
51921;SDS011;37948;53.260;6.394;2022-09-12T13:19:46;7.13;;;5.53;;
51921;SDS011;37948;53.260;6.394;2022-09-12T13:22:13;9.02;;;6.38;;
51921;SDS011;37948;53.260;6.394;2022-09-12T13:24:43;7.65;;;6.03;;
51921;SDS011;37948;53.260;6.394;2022-09-12T13:27:18;15.93;;;7.65;;
51921;SDS011;37948;53.260;6.394;2022-09-12T13:29:45;10.07;;;6.95;;
51921;SDS011;37948;53.260;6.394;2022-09-12T13:32:11;13.00;;;7.47;;
51921;SDS011;37948;53.260;6.394;2022-09-12T13:43:07;9.27;;;6.57;;
51921;SDS011;37948;53.260;6.394;2022-09-12T13:45:41;11.85;;;6.75;;
51921;SDS011;37948;53.260;6.394;2022-09-12T13:48:12;9.57;;;5.72;;
51921;SDS011;37948;53.260;6.394;2022-09-12T13:50:59;8.50;;;6.43;;
51921;SDS011;37948;53.260;6.394;2022-09-12T13:53:27;6.63;;;5.93;;
51921;SDS011;37948;53.260;6.394;2022-09-12T13:56:00;10.85;;;6.60;;
51921;SDS011;37948;53.260;6.394;2022-09-12T13:58:28;12.10;;;7.43;;
51921;SDS011;37948;53.260;6.394;2022-09-12T14:00:59;11.63;;;7.28;;
51921;SDS011;37948;53.260;6.394;2022-09-12T14:03:31;13.60;;;6.47;;
51921;SDS011;37948;53.260;6.394;2022-09-12T14:09:15;6.60;;;4.70;;
51921;SDS011;37948;53.260;6.394;2022-09-12T14:11:47;8.48;;;5.50;;
51921;SDS011;37948;53.260;6.394;2022-09-12T14:14:34;13.32;;;4.88;;
51921;SDS011;37948;53.260;6.394;2022-09-12T14:17:16;6.50;;;4.80;;
51921;SDS011;37948;53.260;6.394;2022-09-12T14:19:45;5.70;;;4.45;;
51921;SDS011;37948;53.260;6.394;2022-09-12T14:22:12;6.28;;;5.32;;
51921;SDS011;37948;53.260;6.394;2022-09-12T14:24:41;8.55;;;5.60;;
51921;SDS011;37948;53.260;6.394;2022-09-12T14:27:16;7.53;;;5.25;;
51921;SDS011;37948;53.260;6.394;2022-09-12T14:29:48;8.52;;;4.78;;
51921;SDS011;37948;53.260;6.394;2022-09-12T14:32:21;7.20;;;4.60;;
51921;SDS011;37948;53.260;6.394;2022-09-12T14:35:04;4.60;;;4.00;;
51921;SDS011;37948;53.260;6.394;2022-09-12T14:37:36;8.88;;;4.45;;
51921;SDS011;37948;53.260;6.394;2022-09-12T14:40:11;7.55;;;4.15;;
51921;SDS011;37948;53.260;6.394;2022-09-12T14:42:43;5.20;;;4.68;;
51921;SDS011;37948;53.260;6.394;2022-09-12T14:45:24;4.97;;;4.00;;
51921;SDS011;37948;53.260;6.394;2022-09-12T14:47:53;5.05;;;3.92;;
51921;SDS011;37948;53.260;6.394;2022-09-12T14:50:21;5.63;;;4.70;;
51921;SDS011;37948;53.260;6.394;2022-09-12T14:53:06;13.48;;;4.43;;
51921;SDS011;37948;53.260;6.394;2022-09-12T14:55:45;4.95;;;3.72;;
51921;SDS011;37948;53.260;6.394;2022-09-12T14:58:22;3.47;;;3.03;;
51921;SDS011;37948;53.260;6.394;2022-09-12T15:01:00;4.72;;;2.80;;
51921;SDS011;37948;53.260;6.394;2022-09-12T15:06:00;5.05;;;3.78;;
51921;SDS011;37948;53.260;6.394;2022-09-12T15:08:27;3.95;;;3.13;;
51921;SDS011;37948;53.260;6.394;2022-09-12T15:10:54;5.25;;;2.85;;
51921;SDS011;37948;53.260;6.394;2022-09-12T15:13:21;5.35;;;2.95;;
51921;SDS011;37948;53.260;6.394;2022-09-12T15:15:53;5.32;;;3.15;;
51921;SDS011;37948;53.260;6.394;2022-09-12T15:18:20;3.58;;;2.67;;
51921;SDS011;37948;53.260;6.394;2022-09-12T15:20:52;5.53;;;2.72;;
51921;SDS011;37948;53.260;6.394;2022-09-12T15:24:02;3.40;;;3.10;;
51921;SDS011;37948;53.260;6.394;2022-09-12T15:26:15;3.22;;;2.95;;
51921;SDS011;37948;53.260;6.394;2022-09-12T15:28:46;3.95;;;3.10;;
51921;SDS011;37948;53.260;6.394;2022-09-12T15:31:14;3.78;;;3.10;;
51921;SDS011;37948;53.260;6.394;2022-09-12T15:33:51;4.15;;;2.97;;
51921;SDS011;37948;53.260;6.394;2022-09-12T15:36:18;9.05;;;3.70;;
51921;SDS011;37948;53.260;6.394;2022-09-12T15:38:45;6.70;;;2.85;;
51921;SDS011;37948;53.260;6.394;2022-09-12T15:41:12;3.80;;;2.53;;
51921;SDS011;37948;53.260;6.394;2022-09-12T15:43:44;4.93;;;3.20;;
51921;SDS011;37948;53.260;6.394;2022-09-12T15:46:10;5.10;;;2.78;;
51921;SDS011;37948;53.260;6.394;2022-09-12T15:48:37;5.25;;;3.05;;
51921;SDS011;37948;53.260;6.394;2022-09-12T15:51:04;4.88;;;3.20;;
51921;SDS011;37948;53.260;6.394;2022-09-12T15:53:33;3.67;;;2.60;;
51921;SDS011;37948;53.260;6.394;2022-09-12T15:55:59;4.43;;;3.05;;
51921;SDS011;37948;53.260;6.394;2022-09-12T15:58:24;3.88;;;2.83;;
51921;SDS011;37948;53.260;6.394;2022-09-12T16:00:50;3.15;;;2.95;;
51921;SDS011;37948;53.260;6.394;2022-09-12T16:03:23;6.10;;;3.03;;
51921;SDS011;37948;53.260;6.394;2022-09-12T16:05:58;5.57;;;3.50;;
51921;SDS011;37948;53.260;6.394;2022-09-12T16:08:25;4.38;;;3.45;;
51921;SDS011;37948;53.260;6.394;2022-09-12T16:10:53;9.13;;;3.60;;
51921;SDS011;37948;53.260;6.394;2022-09-12T16:13:21;4.32;;;2.97;;
51921;SDS011;37948;53.260;6.394;2022-09-12T16:15:47;4.40;;;2.60;;
51921;SDS011;37948;53.260;6.394;2022-09-12T16:18:13;3.95;;;3.38;;
51921;SDS011;37948;53.260;6.394;2022-09-12T16:20:39;3.55;;;3.13;;
51921;SDS011;37948;53.260;6.394;2022-09-12T16:23:05;3.47;;;3.28;;
51921;SDS011;37948;53.260;6.394;2022-09-12T16:25:32;3.50;;;3.20;;
51921;SDS011;37948;53.260;6.394;2022-09-12T16:27:58;5.53;;;3.38;;
51921;SDS011;37948;53.260;6.394;2022-09-12T16:30:25;6.63;;;3.78;;
51921;SDS011;37948;53.260;6.394;2022-09-12T16:32:51;5.43;;;3.33;;
51921;SDS011;37948;53.260;6.394;2022-09-12T16:35:16;8.00;;;3.55;;
51921;SDS011;37948;53.260;6.394;2022-09-12T16:37:42;4.78;;;3.33;;
51921;SDS011;37948;53.260;6.394;2022-09-12T16:40:08;5.03;;;3.65;;
51921;SDS011;37948;53.260;6.394;2022-09-12T16:42:34;4.97;;;4.38;;
51921;SDS011;37948;53.260;6.394;2022-09-12T16:45:00;7.03;;;4.53;;
51921;SDS011;37948;53.260;6.394;2022-09-12T16:47:26;4.60;;;3.60;;
51921;SDS011;37948;53.260;6.394;2022-09-12T16:49:51;5.50;;;3.53;;
51921;SDS011;37948;53.260;6.394;2022-09-12T16:52:17;5.90;;;3.65;;
51921;SDS011;37948;53.260;6.394;2022-09-12T16:54:43;6.47;;;3.85;;
51921;SDS011;37948;53.260;6.394;2022-09-12T16:57:09;4.13;;;3.80;;
51921;SDS011;37948;53.260;6.394;2022-09-12T16:59:35;7.57;;;3.63;;
51921;SDS011;37948;53.260;6.394;2022-09-12T17:02:01;4.25;;;3.58;;
51921;SDS011;37948;53.260;6.394;2022-09-12T17:04:27;7.65;;;3.33;;